Yorktown Express — WDD6127 — position and weather

sailwx.info

Track history (hours):
 
Tides and Currents Weather Stations Pressure Air Temp Water Temp Dewpoint Dewpoint Depression Visibility Wind Speed Wind Dir Waves Ship Positions

Yorktown Express

Owner: Marine Transport Management, Inc., Jacksonville, FL. More information available from US FCC via Universal Licensing System and Coast Guard Vessel Documentation Center.

Last reported at 2016-May-05 21:18 UTC. Time now 2016-May-06 07:20 UTC.
Position N 49°59' W 010°11'.

Type: Ship. MMSI: 367168650.

Date/timePositionNaut miles runAvg speedWind from/ knotsBaromVisibWave heightAir tempDewpointWater temp
2016-May-05 21:18N 49°59' W 010°11'10317.3
2016-May-05 15:22N 49°50' W 007°32'1716.7
2016-May-05 14:21N 49°46' W 007°06'1317.0
2016-May-05 13:33N 49°45' W 006°46'2117.5
2016-May-05 12:22N 49°44' W 006°14'1518.3
2016-May-05 11:32N 49°46' W 005°50'1919.5
2016-May-05 10:33N 49°48' W 005°21'2020.1
2016-May-05 09:33N 49°50' W 004°50'2019.8
2016-May-05 08:33N 49°53' W 004°19'1919.3
2016-May-05 07:33N 49°55' W 003°50'1818.2
2016-May-05 06:33N 49°58' W 003°22'1717.2
2016-May-05 05:34N 50°01' W 002°56'1716.8
2016-May-05 04:33N 50°06' W 002°30'1717.3
2016-May-05 03:33N 50°09' W 002°04'1918.9
2016-May-05 02:33N 50°16' W 001°36'2020.3
2016-May-05 01:33N 50°28' W 001°11'1515.3
2016-May-05 00:33N 50°40' W 000°56'1313.0
2016-May-04 23:34N 50°46' W 001°15'9 9.3
2016-May-04 22:33N 50°53' W 001°24'3 2.7
2016-May-04 21:31N 50°55' W 001°28'0 0.0
2016-May-04 20:31N 50°55' W 001°28'0 0.0
2016-May-04 19:31N 50°55' W 001°28'0 0.0
2016-May-04 18:10N 50°55' W 001°28'0 0.0
2016-May-04 17:31N 50°55' W 001°28'0 0.0
2016-May-04 16:28N 50°55' W 001°28'0 0.0
2016-May-04 15:31N 50°55' W 001°28'0 0.0
2016-May-04 14:31N 50°55' W 001°28'0 0.0
2016-May-04 13:25N 50°55' W 001°28'0 0.0
2016-May-04 12:28N 50°55' W 001°28'0 0.0
2016-May-04 11:28N 50°55' W 001°28'0 0.0
2016-May-04 10:28N 50°55' W 001°28'0 0.0
2016-May-04 08:22N 50°55' W 001°28'1 1.5
2016-May-04 07:33N 50°54' W 001°26'8 8.1
2016-May-04 06:33N 50°48' W 001°18'1413.6
2016-May-04 05:33N 50°43' W 000°58'1010.3
2016-May-04 04:33N 50°35' W 000°47'1817.9
2016-May-04 03:33N 50°33' W 000°19'1918.9
2016-May-04 02:33N 50°34' E 000°11'2019.9
2016-May-04 01:33N 50°39' E 000°41'2019.5
2016-May-04 00:33N 50°50' E 001°07'1818.1
2016-May-03 23:33N 51°02' E 001°28'1716.8
2016-May-03 22:33N 51°14' E 001°46'1717.2
2016-May-03 21:33N 51°29' E 002°00'1818.2
2016-May-03 20:33N 51°43' E 002°18'1919.2
2016-May-03 19:33N 51°57' E 002°39'2019.9
2016-May-03 18:33N 52°12' E 003°02'4719.9
2016-May-03 16:13N 52°49' E 003°48'3018.3
2016-May-03 14:33N 53°10' E 004°25'3316.3
2016-May-03 12:33N 53°34' E 005°01'1918.6
2016-May-03 11:33N 53°40' E 005°31'1919.1
2016-May-03 10:33N 53°47' E 006°01'1919.0
2016-May-03 09:33N 53°52' E 006°32'1918.6
2016-May-03 08:33N 53°56' E 007°03'1818.1
2016-May-03 07:33N 53°59' E 007°33'1413.7
2016-May-03 06:33N 53°52' E 007°54'1413.6
2016-May-03 05:33N 53°45' E 008°13'1312.6
2016-May-03 04:33N 53°37' E 008°30'2 2.1
2016-May-03 03:31N 53°35' E 008°32'0 0.0
2016-May-03 02:31N 53°35' E 008°32'0 0.0
2016-May-03 01:31N 53°35' E 008°32'0 0.0
2016-May-03 00:31N 53°35' E 008°32'0 0.0
2016-May-02 23:31N 53°35' E 008°32'0 0.0
2016-May-02 22:31N 53°35' E 008°32'0 0.0
2016-May-02 21:31N 53°35' E 008°32'0 0.0
2016-May-02 20:31N 53°35' E 008°32'0 0.0
2016-May-02 19:31N 53°35' E 008°32'0 0.0
2016-May-02 18:31N 53°35' E 008°32'0 0.0
2016-May-02 17:31N 53°35' E 008°32'0 0.0
2016-May-02 16:31N 53°35' E 008°32'0 0.0
2016-May-02 15:31N 53°35' E 008°32'0 0.0
2016-May-02 14:31N 53°35' E 008°32'0 0.1
2016-May-02 13:31N 53°35' E 008°32'0 0.1
2016-May-02 12:31N 53°35' E 008°32'0 0.0
2016-May-02 11:31N 53°35' E 008°32'0 0.0
2016-May-02 10:31N 53°35' E 008°32'0 0.0
2016-May-02 09:31N 53°35' E 008°32'0 0.0
2016-May-02 08:31N 53°35' E 008°32'0 0.0
2016-May-02 07:31N 53°35' E 008°32'0 0.0
2016-May-02 06:31N 53°35' E 008°32'0 0.0
2016-May-02 05:31N 53°35' E 008°32'0 0.0
2016-May-02 04:31N 53°35' E 008°32'1 1.4
2016-May-02 03:33N 53°36' E 008°30'1514.6
2016-May-02 02:34N 53°45' E 008°12'1414.2
2016-May-02 01:33N 53°52' E 007°51'1010.0
2016-May-02 00:34N 53°54' E 007°34'1616.4
2016-May-01 23:33N 53°52' E 007°06'1817.6
2016-May-01 22:33N 53°47' E 006°37'1717.4
2016-May-01 21:33N 53°43' E 006°09'1717.5
2016-May-01 20:33N 53°37' E 005°41'1717.3
2016-May-01 19:33N 53°32' E 005°14'1717.4
2016-May-01 18:33N 53°25' E 004°46'1717.2
2016-May-01 17:33N 53°10' E 004°32'1817.8
2016-May-01 16:33N 52°55' E 004°17'1817.6
2016-May-01 15:33N 52°40' E 004°00'1817.8
2016-May-01 14:33N 52°27' E 003°40'1716.9
2016-May-01 13:33N 52°12' E 003°28'1818.2
2016-May-01 12:33N 51°55' E 003°21'1615.6
2016-May-01 11:33N 51°40' E 003°11'1716.6
2016-May-01 10:33N 51°25' E 002°59'1615.6
2016-May-01 09:33N 51°25' E 003°24'1111.2
2016-May-01 08:33N 51°25' E 003°42'1111.1
2016-May-01 07:33N 51°26' E 004°00'1010.2
2016-May-01 06:33N 51°21' E 004°14'2 1.6
2016-May-01 05:32N 51°20' E 004°16'0 0.0
2016-May-01 04:34N 51°20' E 004°16'0 0.0
2016-May-01 03:33N 51°20' E 004°16'0 0.0
2016-May-01 02:34N 51°20' E 004°16'0 0.0
2016-May-01 01:31N 51°20' E 004°16'0 0.0
2016-May-01 00:33N 51°20' E 004°16'0 0.0
2016-Apr-30 23:34N 51°20' E 004°16'0 0.0
2016-Apr-30 22:33N 51°20' E 004°16'0 0.0
2016-Apr-30 21:33N 51°20' E 004°16'0 0.0
2016-Apr-30 20:31N 51°20' E 004°16'0 0.0
2016-Apr-30 19:34N 51°20' E 004°16'0 0.0
2016-Apr-30 18:32N 51°20' E 004°16'0 0.0
2016-Apr-30 17:34N 51°20' E 004°16'0 0.0
2016-Apr-30 16:34N 51°20' E 004°16'0 0.0
2016-Apr-30 15:32N 51°20' E 004°16'0 0.0
2016-Apr-30 14:31N 51°20' E 004°16'0 0.0
2016-Apr-30 13:33N 51°20' E 004°16'0 0.0
2016-Apr-30 12:33N 51°20' E 004°16'3 3.1
2016-Apr-30 11:33N 51°23' E 004°13'7 7.2
2016-Apr-30 10:33N 51°25' E 004°02'8 7.9
2016-Apr-30 09:33N 51°21' E 003°51'10 9.6
2016-Apr-30 08:33N 51°26' E 003°38'1111.1
2016-Apr-30 07:33N 51°24' E 003°21'1717.4
2016-Apr-30 06:33N 51°22' E 002°53'1211.5
2016-Apr-30 05:33N 51°22' E 002°34'9 9.0
2016-Apr-30 04:33N 51°19' E 002°21'1717.2
2016-Apr-30 03:34N 51°10' E 001°57'1817.9
2016-Apr-30 02:33N 50°59' E 001°35'1616.5
2016-Apr-30 01:33N 50°44' E 001°25'3817.4
2016-Apr-29 23:23N 50°24' E 000°34'1518.1
2016-Apr-29 22:33N 50°21' E 000°11'1818.0
2016-Apr-29 21:33N 50°19' W 000°17'3716.6
2016-Apr-29 19:21N 50°20' W 001°14'4616.1
2016-Apr-29 16:30N 50°19' W 002°26'1617.5
2016-Apr-29 15:33N 50°19' W 002°52'1717.1
2016-Apr-29 14:33N 50°24' W 003°17'7 6.6
2016-Apr-29 13:33N 50°19' W 003°24'1110.6
2016-Apr-29 12:33N 50°09' W 003°28'1211.5
2016-Apr-29 11:33N 50°04' W 003°44'1211.8
2016-Apr-29 10:33N 49°59' W 004°01'1211.9
2016-Apr-29 09:33N 49°55' W 004°18'1211.6
2016-Apr-29 08:33N 49°51' W 004°35'1111.0
2016-Apr-29 07:33N 49°47' W 004°51'36918.9
2016-Apr-28 12:00N 49°18' W 014°18'12620.9 310 / 171022.927.0 1.011.5 2.213.0
2016-Apr-28 06:00N 48°06' W 016°54'33318.5 290 / 101024.6 0.510.0 5.715.0
2016-Apr-27 12:00N 47°54' W 025°12'11719.5 100 / 221021.210.8 3.014.0 8.015.0
2016-Apr-27 06:00N 47°24' W 028°00'45719.0 090 / 251016.0 5.4 1.514.010.217.0
2016-Apr-26 06:00N 44°36' W 038°12'   010 / 101006.710.8 0.516.012.419.0
Track history (hours):
 
Tides and Currents Weather Stations Pressure Air Temp Water Temp Dewpoint Dewpoint Depression Visibility Wind Speed Wind Dir Waves Ship Positions

Yorktown Express

Owner: Marine Transport Management, Inc., Jacksonville, FL. More information available from US FCC via Universal Licensing System and Coast Guard Vessel Documentation Center.

Last reported at 2016-May-05 21:18 UTC. Time now 2016-May-06 07:20 UTC.
Position N 49°59' W 010°11'.

Type: Ship. MMSI: 367168650.

Date/timePositionNaut miles runAvg speedWind from/ knotsBaromVisibWave heightAir tempDewpointWater temp
2016-May-05 21:18N 49°59' W 010°11'10317.3
2016-May-05 15:22N 49°50' W 007°32'1716.7
2016-May-05 14:21N 49°46' W 007°06'1317.0
2016-May-05 13:33N 49°45' W 006°46'2117.5
2016-May-05 12:22N 49°44' W 006°14'1518.3
2016-May-05 11:32N 49°46' W 005°50'1919.5
2016-May-05 10:33N 49°48' W 005°21'2020.1
2016-May-05 09:33N 49°50' W 004°50'2019.8
2016-May-05 08:33N 49°53' W 004°19'1919.3
2016-May-05 07:33N 49°55' W 003°50'1818.2
2016-May-05 06:33N 49°58' W 003°22'1717.2
2016-May-05 05:34N 50°01' W 002°56'1716.8
2016-May-05 04:33N 50°06' W 002°30'1717.3
2016-May-05 03:33N 50°09' W 002°04'1918.9
2016-May-05 02:33N 50°16' W 001°36'2020.3
2016-May-05 01:33N 50°28' W 001°11'1515.3
2016-May-05 00:33N 50°40' W 000°56'1313.0
2016-May-04 23:34N 50°46' W 001°15'9 9.3
2016-May-04 22:33N 50°53' W 001°24'3 2.7
2016-May-04 21:31N 50°55' W 001°28'0 0.0
2016-May-04 20:31N 50°55' W 001°28'0 0.0
2016-May-04 19:31N 50°55' W 001°28'0 0.0
2016-May-04 18:10N 50°55' W 001°28'0 0.0
2016-May-04 17:31N 50°55' W 001°28'0 0.0
2016-May-04 16:28N 50°55' W 001°28'0 0.0
2016-May-04 15:31N 50°55' W 001°28'0 0.0
2016-May-04 14:31N 50°55' W 001°28'0 0.0
2016-May-04 13:25N 50°55' W 001°28'0 0.0
2016-May-04 12:28N 50°55' W 001°28'0 0.0
2016-May-04 11:28N 50°55' W 001°28'0 0.0
2016-May-04 10:28N 50°55' W 001°28'0 0.0
2016-May-04 08:22N 50°55' W 001°28'1 1.5
2016-May-04 07:33N 50°54' W 001°26'8 8.1
2016-May-04 06:33N 50°48' W 001°18'1413.6
2016-May-04 05:33N 50°43' W 000°58'1010.3
2016-May-04 04:33N 50°35' W 000°47'1817.9
2016-May-04 03:33N 50°33' W 000°19'1918.9
2016-May-04 02:33N 50°34' E 000°11'2019.9
2016-May-04 01:33N 50°39' E 000°41'2019.5
2016-May-04 00:33N 50°50' E 001°07'1818.1
2016-May-03 23:33N 51°02' E 001°28'1716.8
2016-May-03 22:33N 51°14' E 001°46'1717.2
2016-May-03 21:33N 51°29' E 002°00'1818.2
2016-May-03 20:33N 51°43' E 002°18'1919.2
2016-May-03 19:33N 51°57' E 002°39'2019.9
2016-May-03 18:33N 52°12' E 003°02'4719.9
2016-May-03 16:13N 52°49' E 003°48'3018.3
2016-May-03 14:33N 53°10' E 004°25'3316.3
2016-May-03 12:33N 53°34' E 005°01'1918.6
2016-May-03 11:33N 53°40' E 005°31'1919.1
2016-May-03 10:33N 53°47' E 006°01'1919.0
2016-May-03 09:33N 53°52' E 006°32'1918.6
2016-May-03 08:33N 53°56' E 007°03'1818.1
2016-May-03 07:33N 53°59' E 007°33'1413.7
2016-May-03 06:33N 53°52' E 007°54'1413.6
2016-May-03 05:33N 53°45' E 008°13'1312.6
2016-May-03 04:33N 53°37' E 008°30'2 2.1
2016-May-03 03:31N 53°35' E 008°32'0 0.0
2016-May-03 02:31N 53°35' E 008°32'0 0.0
2016-May-03 01:31N 53°35' E 008°32'0 0.0
2016-May-03 00:31N 53°35' E 008°32'0 0.0
2016-May-02 23:31N 53°35' E 008°32'0 0.0
2016-May-02 22:31N 53°35' E 008°32'0 0.0
2016-May-02 21:31N 53°35' E 008°32'0 0.0
2016-May-02 20:31N 53°35' E 008°32'0 0.0
2016-May-02 19:31N 53°35' E 008°32'0 0.0
2016-May-02 18:31N 53°35' E 008°32'0 0.0
2016-May-02 17:31N 53°35' E 008°32'0 0.0
2016-May-02 16:31N 53°35' E 008°32'0 0.0
2016-May-02 15:31N 53°35' E 008°32'0 0.0
2016-May-02 14:31N 53°35' E 008°32'0 0.1
2016-May-02 13:31N 53°35' E 008°32'0 0.1
2016-May-02 12:31N 53°35' E 008°32'0 0.0
2016-May-02 11:31N 53°35' E 008°32'0 0.0
2016-May-02 10:31N 53°35' E 008°32'0 0.0
2016-May-02 09:31N 53°35' E 008°32'0 0.0
2016-May-02 08:31N 53°35' E 008°32'0 0.0
2016-May-02 07:31N 53°35' E 008°32'0 0.0
2016-May-02 06:31N 53°35' E 008°32'0 0.0
2016-May-02 05:31N 53°35' E 008°32'0 0.0
2016-May-02 04:31N 53°35' E 008°32'1 1.4
2016-May-02 03:33N 53°36' E 008°30'1514.6
2016-May-02 02:34N 53°45' E 008°12'1414.2
2016-May-02 01:33N 53°52' E 007°51'1010.0
2016-May-02 00:34N 53°54' E 007°34'1616.4
2016-May-01 23:33N 53°52' E 007°06'1817.6
2016-May-01 22:33N 53°47' E 006°37'1717.4
2016-May-01 21:33N 53°43' E 006°09'1717.5
2016-May-01 20:33N 53°37' E 005°41'1717.3
2016-May-01 19:33N 53°32' E 005°14'1717.4
2016-May-01 18:33N 53°25' E 004°46'1717.2
2016-May-01 17:33N 53°10' E 004°32'1817.8
2016-May-01 16:33N 52°55' E 004°17'1817.6
2016-May-01 15:33N 52°40' E 004°00'1817.8
2016-May-01 14:33N 52°27' E 003°40'1716.9
2016-May-01 13:33N 52°12' E 003°28'1818.2
2016-May-01 12:33N 51°55' E 003°21'1615.6
2016-May-01 11:33N 51°40' E 003°11'1716.6
2016-May-01 10:33N 51°25' E 002°59'1615.6
2016-May-01 09:33N 51°25' E 003°24'1111.2
2016-May-01 08:33N 51°25' E 003°42'1111.1
2016-May-01 07:33N 51°26' E 004°00'1010.2
2016-May-01 06:33N 51°21' E 004°14'2 1.6
2016-May-01 05:32N 51°20' E 004°16'0 0.0
2016-May-01 04:34N 51°20' E 004°16'0 0.0
2016-May-01 03:33N 51°20' E 004°16'0 0.0
2016-May-01 02:34N 51°20' E 004°16'0 0.0
2016-May-01 01:31N 51°20' E 004°16'0 0.0
2016-May-01 00:33N 51°20' E 004°16'0 0.0
2016-Apr-30 23:34N 51°20' E 004°16'0 0.0
2016-Apr-30 22:33N 51°20' E 004°16'0 0.0
2016-Apr-30 21:33N 51°20' E 004°16'0 0.0
2016-Apr-30 20:31N 51°20' E 004°16'0 0.0
2016-Apr-30 19:34N 51°20' E 004°16'0 0.0
2016-Apr-30 18:32N 51°20' E 004°16'0 0.0
2016-Apr-30 17:34N 51°20' E 004°16'0 0.0
2016-Apr-30 16:34N 51°20' E 004°16'0 0.0
2016-Apr-30 15:32N 51°20' E 004°16'0 0.0
2016-Apr-30 14:31N 51°20' E 004°16'0 0.0
2016-Apr-30 13:33N 51°20' E 004°16'0 0.0
2016-Apr-30 12:33N 51°20' E 004°16'3 3.1
2016-Apr-30 11:33N 51°23' E 004°13'7 7.2
2016-Apr-30 10:33N 51°25' E 004°02'8 7.9
2016-Apr-30 09:33N 51°21' E 003°51'10 9.6
2016-Apr-30 08:33N 51°26' E 003°38'1111.1
2016-Apr-30 07:33N 51°24' E 003°21'1717.4
2016-Apr-30 06:33N 51°22' E 002°53'1211.5
2016-Apr-30 05:33N 51°22' E 002°34'9 9.0
2016-Apr-30 04:33N 51°19' E 002°21'1717.2
2016-Apr-30 03:34N 51°10' E 001°57'1817.9
2016-Apr-30 02:33N 50°59' E 001°35'1616.5
2016-Apr-30 01:33N 50°44' E 001°25'3817.4
2016-Apr-29 23:23N 50°24' E 000°34'1518.1
2016-Apr-29 22:33N 50°21' E 000°11'1818.0
2016-Apr-29 21:33N 50°19' W 000°17'3716.6
2016-Apr-29 19:21N 50°20' W 001°14'4616.1
2016-Apr-29 16:30N 50°19' W 002°26'1617.5
2016-Apr-29 15:33N 50°19' W 002°52'1717.1
2016-Apr-29 14:33N 50°24' W 003°17'7 6.6
2016-Apr-29 13:33N 50°19' W 003°24'1110.6
2016-Apr-29 12:33N 50°09' W 003°28'1211.5
2016-Apr-29 11:33N 50°04' W 003°44'1211.8
2016-Apr-29 10:33N 49°59' W 004°01'1211.9
2016-Apr-29 09:33N 49°55' W 004°18'1211.6
2016-Apr-29 08:33N 49°51' W 004°35'1111.0
2016-Apr-29 07:33N 49°47' W 004°51'36918.9
2016-Apr-28 12:00N 49°18' W 014°18'12620.9 310 / 171022.927.0 1.011.5 2.213.0
2016-Apr-28 06:00N 48°06' W 016°54'33318.5 290 / 101024.6 0.510.0 5.715.0
2016-Apr-27 12:00N 47°54' W 025°12'11719.5 100 / 221021.210.8 3.014.0 8.015.0
2016-Apr-27 06:00N 47°24' W 028°00'45719.0 090 / 251016.0 5.4 1.514.010.217.0
2016-Apr-26 06:00N 44°36' W 038°12'   010 / 101006.710.8 0.516.012.419.0

Dump ship's entire track history